Airfield :
LOGIN :

Register | Disclaimer

   EN    FR    IT 

 










Legend :    VFR   Marginal VFR   IFR   Intensive IFR   Very Intensive IFR
Visi :
Ceiling :
>= 8 km
>= 3000ft
5 to 8 km
1000 to 3000 ft
1500m to 5 km
500 to 1000 ft
800 to 1500m
200 to 500 ft
< 800m
< 200 ft
Symbols :   Thunderstorms  Fog  Heavy snow  Heavy precipitations  Wind > 20 kt
SIGMETs :     Misc.  Thunderstorms  Icing  Turbulence  Mountain Waves  Volcanic Ashes






- Airport Elevation : 505 ft
- IATA code : SXB


LFST - Strasbourg

CURRENT METAR :
  • 300230Z AUTO 01007KT 8000 -RADZ BKN015 OVC042 07/06 Q1020 TEMPO 1200 -RADZ BR OVC003

EXPIRED METARs :
  • 300200Z AUTO 36007KT 8000 FEW018 BKN043 BKN070 07/06 Q1020 TEMPO 1200 -RADZ BR OVC003
  • 300130Z AUTO 36007KT 9000 SCT019 SCT048 BKN100 07/06 Q1020 TEMPO 1200 -RADZ BR OVC003
  • 300100Z AUTO 36007KT 7000 BKN007 BKN020 BKN060 07/07 Q1020 TEMPO 1200 -RADZ BR OVC003
  • 300030Z AUTO 35007KT 7000 OVC006 08/07 Q1020 TEMPO 1200 -RADZ BR OVC003
  • 300000Z AUTO 01006KT 7000 OVC006 08/07 Q1020 TEMPO 1200 -RADZ BR OVC003

TAF TAF LFST
Valid from the 30 at 00:00 until the 01 at 00:00 UTC


292300Z 3000/3024 01006KT 7000 SCT006 BKN015
TEMPO 3000/3012 3000 -RA BR BKN005
PROB30
TEMPO 3000/3010 1200 -RADZ BR OVC003
TEMPO 3012/3015 BKN010
BECMG 3018/3021 SCT028



MET'MAP, your aeronautical weather chart ! - Copyright ORBIFLY December 2007 - Disclaimer

ORBIFLY MET'MAP TEAM :

Programming & Development : Alexandra Zaïnal
Original concept : Baudouin d'Aumeries
Technical & hardware support : Manuel Goepfert
Assistance : Marc-Olivier Méhu




SOURCES & CREDITS :

   NOAA